Pays
Station

 

Conditions  météo  pour  Mount Isa Amo  -  Australie    Australie

  
21 °C
    
 
 

METAR pour Mount Isa Amo :

YBMA 200130Z AUTO 09009KT 9999 // NCD 21/M04 Q1021 RF00.0/000.0

 

Voici le bulletin pour Mount Isa Amo - Australie.
 
Le bulletin a été fait il y a 30 minutes, à 01:30 UTC .
Le vent soufflait à la vitesse de 4.6 mètres par seconde de Est (090°).
 
La température était de 21 °C, avec un point de rosée à -4 °C.
La pression atmosphérique était de 1021 hPa.
L'humidité relative était de 18.3%.
 
La visibilité globale était de supérieure à 10 kilomètres.
 

 
 
 

Pays :   A   B   C   D   E   F   G   H   I   J   K   L   M   N   O   P   Q   R   S   T   U   V   W   Y   Z

 

Partenaires :  Info Météo avec Met'info
Météo Marine avec MeteoMarine.net
Infos Site  |  Infos Légales  |  Crédits  |  Confidentialité
Contactez-nous  |  Ajouter aux favoris
© 2013-2018 METAR - Tous droits réservés